<?xml version="1.0" encoding="UTF-8" standalone="no" ?>
<gpx xmlns="http://www.topografix.com/GPX/1/1" xmlns:xsi="http://www.w3.org/2001/XMLSchema-instance" xsi:schemaLocation="http://www.topografix.com/GPX/1/1 http://www.topografix.com/GPX/1/1/gpx.xsd" version="1.1" creator="VisuGPX - https://www.visugpx.com">
  <metadata>
    <name>Reichenbach Schloss, Berne</name>
  </metadata>
  <trk>
    <name><![CDATA[Reichenbach Schloss, Berne]]></name>
    <trkseg>
      <trkpt lat="46.99017" lon="7.44973">
        <ele>492.172</ele>
        <time>2021-03-21T09:48:55Z</time>
      </trkpt>
      <trkpt lat="46.9896" lon="7.4482">
        <ele>494.013</ele>
        <time>2021-03-21T09:50:36Z</time>
      </trkpt>
      <trkpt lat="46.98823" lon="7.44723">
        <ele>501.214</ele>
        <time>2021-03-21T09:52:40Z</time>
      </trkpt>
      <trkpt lat="46.98768" lon="7.44662">
        <ele>508.008</ele>
        <time>2021-03-21T09:53:51Z</time>
      </trkpt>
      <trkpt lat="46.98744" lon="7.44662">
        <ele>507.843</ele>
        <time>2021-03-21T09:54:10Z</time>
      </trkpt>
      <trkpt lat="46.98643" lon="7.44613">
        <ele>507.475</ele>
        <time>2021-03-21T09:55:32Z</time>
      </trkpt>
      <trkpt lat="46.98601" lon="7.4463">
        <ele>504.062</ele>
        <time>2021-03-21T09:56:20Z</time>
      </trkpt>
      <trkpt lat="46.98479" lon="7.4462">
        <ele>493.486</ele>
        <time>2021-03-21T09:58:25Z</time>
      </trkpt>
      <trkpt lat="46.98389" lon="7.44579">
        <ele>493.31</ele>
        <time>2021-03-21T09:59:17Z</time>
      </trkpt>
      <trkpt lat="46.98274" lon="7.44457">
        <ele>494.741</ele>
        <time>2021-03-21T10:01:09Z</time>
      </trkpt>
      <trkpt lat="46.98159" lon="7.44258">
        <ele>492.227</ele>
        <time>2021-03-21T10:03:25Z</time>
      </trkpt>
      <trkpt lat="46.98024" lon="7.44086">
        <ele>496.938</ele>
        <time>2021-03-21T10:06:28Z</time>
      </trkpt>
      <trkpt lat="46.97994" lon="7.44076">
        <ele>495.337</ele>
        <time>2021-03-21T10:06:56Z</time>
      </trkpt>
      <trkpt lat="46.97895" lon="7.44122">
        <ele>493.249</ele>
        <time>2021-03-21T10:08:55Z</time>
      </trkpt>
      <trkpt lat="46.97711" lon="7.44143">
        <ele>492.313</ele>
        <time>2021-03-21T10:11:24Z</time>
      </trkpt>
      <trkpt lat="46.97614" lon="7.43994">
        <ele>493.208</ele>
        <time>2021-03-21T10:13:39Z</time>
      </trkpt>
      <trkpt lat="46.97626" lon="7.43996">
        <ele>496.679</ele>
        <time>2021-03-21T10:14:01Z</time>
      </trkpt>
      <trkpt lat="46.97621" lon="7.44016">
        <ele>496.091</ele>
        <time>2021-03-21T10:14:13Z</time>
      </trkpt>
      <trkpt lat="46.9759" lon="7.44082">
        <ele>495.788</ele>
        <time>2021-03-21T10:14:54Z</time>
      </trkpt>
      <trkpt lat="46.97578" lon="7.44059">
        <ele>490.032</ele>
        <time>2021-03-21T10:15:24Z</time>
      </trkpt>
      <trkpt lat="46.97636" lon="7.44105">
        <ele>490.756</ele>
        <time>2021-03-21T10:16:23Z</time>
      </trkpt>
      <trkpt lat="46.97665" lon="7.44163">
        <ele>490.737</ele>
        <time>2021-03-21T10:17:07Z</time>
      </trkpt>
      <trkpt lat="46.97661" lon="7.44287">
        <ele>491.313</ele>
        <time>2021-03-21T10:18:11Z</time>
      </trkpt>
      <trkpt lat="46.97563" lon="7.44441">
        <ele>489.894</ele>
        <time>2021-03-21T10:20:05Z</time>
      </trkpt>
      <trkpt lat="46.97513" lon="7.44493">
        <ele>492.048</ele>
        <time>2021-03-21T10:20:57Z</time>
      </trkpt>
      <trkpt lat="46.97507" lon="7.44482">
        <ele>494.661</ele>
        <time>2021-03-21T10:21:24Z</time>
      </trkpt>
      <trkpt lat="46.97478" lon="7.44486">
        <ele>500.417</ele>
        <time>2021-03-21T10:22:00Z</time>
      </trkpt>
      <trkpt lat="46.97469" lon="7.44461">
        <ele>504.108</ele>
        <time>2021-03-21T10:22:21Z</time>
      </trkpt>
      <trkpt lat="46.97468" lon="7.4449">
        <ele>508.15</ele>
        <time>2021-03-21T10:22:45Z</time>
      </trkpt>
      <trkpt lat="46.97444" lon="7.44526">
        <ele>516.412</ele>
        <time>2021-03-21T10:23:30Z</time>
      </trkpt>
      <trkpt lat="46.97435" lon="7.44493">
        <ele>524.149</ele>
        <time>2021-03-21T10:24:06Z</time>
      </trkpt>
      <trkpt lat="46.97432" lon="7.44506">
        <ele>524.113</ele>
        <time>2021-03-21T10:24:27Z</time>
      </trkpt>
      <trkpt lat="46.97441" lon="7.4455">
        <ele>524.557</ele>
        <time>2021-03-21T10:24:51Z</time>
      </trkpt>
      <trkpt lat="46.97425" lon="7.44626">
        <ele>522.468</ele>
        <time>2021-03-21T10:26:32Z</time>
      </trkpt>
      <trkpt lat="46.97439" lon="7.44712">
        <ele>517.664</ele>
        <time>2021-03-21T10:28:09Z</time>
      </trkpt>
      <trkpt lat="46.97457" lon="7.44771">
        <ele>513.445</ele>
        <time>2021-03-21T10:28:55Z</time>
      </trkpt>
      <trkpt lat="46.97521" lon="7.44873">
        <ele>506.373</ele>
        <time>2021-03-21T10:30:37Z</time>
      </trkpt>
      <trkpt lat="46.97644" lon="7.44952">
        <ele>504.285</ele>
        <time>2021-03-21T10:33:40Z</time>
      </trkpt>
      <trkpt lat="46.9777" lon="7.44966">
        <ele>512.913</ele>
        <time>2021-03-21T10:35:44Z</time>
      </trkpt>
      <trkpt lat="46.97821" lon="7.44962">
        <ele>514.308</ele>
        <time>2021-03-21T10:36:24Z</time>
      </trkpt>
      <trkpt lat="46.9791" lon="7.44866">
        <ele>526.733</ele>
        <time>2021-03-21T10:38:22Z</time>
      </trkpt>
      <trkpt lat="46.97956" lon="7.44847">
        <ele>530.065</ele>
        <time>2021-03-21T10:39:06Z</time>
      </trkpt>
      <trkpt lat="46.9797" lon="7.44647">
        <ele>504.552</ele>
        <time>2021-03-21T10:42:04Z</time>
      </trkpt>
      <trkpt lat="46.97953" lon="7.44575">
        <ele>499.176</ele>
        <time>2021-03-21T10:43:06Z</time>
      </trkpt>
      <trkpt lat="46.97951" lon="7.44454">
        <ele>493.52</ele>
        <time>2021-03-21T10:44:20Z</time>
      </trkpt>
      <trkpt lat="46.97996" lon="7.44189">
        <ele>493.141</ele>
        <time>2021-03-21T10:47:22Z</time>
      </trkpt>
      <trkpt lat="46.98027" lon="7.4426">
        <ele>504.737</ele>
        <time>2021-03-21T10:51:29Z</time>
      </trkpt>
      <trkpt lat="46.98088" lon="7.44322">
        <ele>505.118</ele>
        <time>2021-03-21T10:52:37Z</time>
      </trkpt>
      <trkpt lat="46.98146" lon="7.44456">
        <ele>506.998</ele>
        <time>2021-03-21T10:54:17Z</time>
      </trkpt>
      <trkpt lat="46.98215" lon="7.44546">
        <ele>522.415</ele>
        <time>2021-03-21T10:55:55Z</time>
      </trkpt>
      <trkpt lat="46.98226" lon="7.44589">
        <ele>531.626</ele>
        <time>2021-03-21T10:56:40Z</time>
      </trkpt>
      <trkpt lat="46.98234" lon="7.44581">
        <ele>532.208</ele>
        <time>2021-03-21T10:57:02Z</time>
      </trkpt>
      <trkpt lat="46.98331" lon="7.44698">
        <ele>534.225</ele>
        <time>2021-03-21T10:59:46Z</time>
      </trkpt>
      <trkpt lat="46.98393" lon="7.44732">
        <ele>534.887</ele>
        <time>2021-03-21T11:00:34Z</time>
      </trkpt>
      <trkpt lat="46.98369" lon="7.44858">
        <ele>537.254</ele>
        <time>2021-03-21T11:02:54Z</time>
      </trkpt>
      <trkpt lat="46.98382" lon="7.44962">
        <ele>538.548</ele>
        <time>2021-03-21T11:03:54Z</time>
      </trkpt>
      <trkpt lat="46.98344" lon="7.44956">
        <ele>541.742</ele>
        <time>2021-03-21T11:06:16Z</time>
      </trkpt>
      <trkpt lat="46.98349" lon="7.44989">
        <ele>539.543</ele>
        <time>2021-03-21T11:08:12Z</time>
      </trkpt>
      <trkpt lat="46.98371" lon="7.44972">
        <ele>538.499</ele>
        <time>2021-03-21T11:12:31Z</time>
      </trkpt>
      <trkpt lat="46.98371" lon="7.45042">
        <ele>539.43</ele>
        <time>2021-03-21T11:13:58Z</time>
      </trkpt>
      <trkpt lat="46.98427" lon="7.45044">
        <ele>537.677</ele>
        <time>2021-03-21T11:14:46Z</time>
      </trkpt>
      <trkpt lat="46.98437" lon="7.45083">
        <ele>537.161</ele>
        <time>2021-03-21T11:15:08Z</time>
      </trkpt>
      <trkpt lat="46.98393" lon="7.4514">
        <ele>533.027</ele>
        <time>2021-03-21T11:15:52Z</time>
      </trkpt>
      <trkpt lat="46.98257" lon="7.45224">
        <ele>515.408</ele>
        <time>2021-03-21T11:17:58Z</time>
      </trkpt>
      <trkpt lat="46.98199" lon="7.45295">
        <ele>509.243</ele>
        <time>2021-03-21T11:19:02Z</time>
      </trkpt>
      <trkpt lat="46.98171" lon="7.45284">
        <ele>509.345</ele>
        <time>2021-03-21T11:19:24Z</time>
      </trkpt>
      <trkpt lat="46.98078" lon="7.4531">
        <ele>510.942</ele>
        <time>2021-03-21T11:20:43Z</time>
      </trkpt>
      <trkpt lat="46.98054" lon="7.45335">
        <ele>511.156</ele>
        <time>2021-03-21T11:21:01Z</time>
      </trkpt>
      <trkpt lat="46.97966" lon="7.45338">
        <ele>515.84</ele>
        <time>2021-03-21T11:22:19Z</time>
      </trkpt>
      <trkpt lat="46.97875" lon="7.45383">
        <ele>515.981</ele>
        <time>2021-03-21T11:23:36Z</time>
      </trkpt>
      <trkpt lat="46.97831" lon="7.45368">
        <ele>514.747</ele>
        <time>2021-03-21T11:24:09Z</time>
      </trkpt>
      <trkpt lat="46.97778" lon="7.45399">
        <ele>512.548</ele>
        <time>2021-03-21T11:25:26Z</time>
      </trkpt>
      <trkpt lat="46.97742" lon="7.45442">
        <ele>508.924</ele>
        <time>2021-03-21T11:26:00Z</time>
      </trkpt>
      <trkpt lat="46.97677" lon="7.45567">
        <ele>502.104</ele>
        <time>2021-03-21T11:27:32Z</time>
      </trkpt>
      <trkpt lat="46.97659" lon="7.45742">
        <ele>505.314</ele>
        <time>2021-03-21T11:29:37Z</time>
      </trkpt>
      <trkpt lat="46.97639" lon="7.45809">
        <ele>503.708</ele>
        <time>2021-03-21T11:30:24Z</time>
      </trkpt>
      <trkpt lat="46.97644" lon="7.4601">
        <ele>498.378</ele>
        <time>2021-03-21T11:32:59Z</time>
      </trkpt>
      <trkpt lat="46.97592" lon="7.46327">
        <ele>499.14</ele>
        <time>2021-03-21T11:36:01Z</time>
      </trkpt>
      <trkpt lat="46.97607" lon="7.46531">
        <ele>499.317</ele>
        <time>2021-03-21T11:37:52Z</time>
      </trkpt>
      <trkpt lat="46.9759" lon="7.46557">
        <ele>499.331</ele>
        <time>2021-03-21T11:38:07Z</time>
      </trkpt>
      <trkpt lat="46.97591" lon="7.46606">
        <ele>500.195</ele>
        <time>2021-03-21T11:38:34Z</time>
      </trkpt>
      <trkpt lat="46.9756" lon="7.4665">
        <ele>500.616</ele>
        <time>2021-03-21T11:39:06Z</time>
      </trkpt>
      <trkpt lat="46.97503" lon="7.46657">
        <ele>500.162</ele>
        <time>2021-03-21T11:41:20Z</time>
      </trkpt>
      <trkpt lat="46.97463" lon="7.46614">
        <ele>502.993</ele>
        <time>2021-03-21T11:41:47Z</time>
      </trkpt>
      <trkpt lat="46.97498" lon="7.46475">
        <ele>522.326</ele>
        <time>2021-03-21T11:43:43Z</time>
      </trkpt>
      <trkpt lat="46.97485" lon="7.46468">
        <ele>523.447</ele>
        <time>2021-03-21T11:43:56Z</time>
      </trkpt>
      <trkpt lat="46.97477" lon="7.46519">
        <ele>521.911</ele>
        <time>2021-03-21T11:45:04Z</time>
      </trkpt>
      <trkpt lat="46.97438" lon="7.46556">
        <ele>521.008</ele>
        <time>2021-03-21T11:45:38Z</time>
      </trkpt>
      <trkpt lat="46.97425" lon="7.4656">
        <ele>521.178</ele>
        <time>2021-03-21T11:45:49Z</time>
      </trkpt>
      <trkpt lat="46.97384" lon="7.4652">
        <ele>521.41</ele>
        <time>2021-03-21T11:46:35Z</time>
      </trkpt>
      <trkpt lat="46.97308" lon="7.46369">
        <ele>524.677</ele>
        <time>2021-03-21T12:12:33Z</time>
      </trkpt>
      <trkpt lat="46.97299" lon="7.46283">
        <ele>525.841</ele>
        <time>2021-03-21T12:13:29Z</time>
      </trkpt>
      <trkpt lat="46.97246" lon="7.46238">
        <ele>524.685</ele>
        <time>2021-03-21T12:14:08Z</time>
      </trkpt>
      <trkpt lat="46.97207" lon="7.46138">
        <ele>515.086</ele>
        <time>2021-03-21T12:15:16Z</time>
      </trkpt>
      <trkpt lat="46.97112" lon="7.45973">
        <ele>512.042</ele>
        <time>2021-03-21T12:17:07Z</time>
      </trkpt>
      <trkpt lat="46.97092" lon="7.45691">
        <ele>515.453</ele>
        <time>2021-03-21T12:19:37Z</time>
      </trkpt>
      <trkpt lat="46.97102" lon="7.45617">
        <ele>516.744</ele>
        <time>2021-03-21T12:20:11Z</time>
      </trkpt>
      <trkpt lat="46.97163" lon="7.45473">
        <ele>519.905</ele>
        <time>2021-03-21T12:21:38Z</time>
      </trkpt>
      <trkpt lat="46.97164" lon="7.45378">
        <ele>521.315</ele>
        <time>2021-03-21T12:22:35Z</time>
      </trkpt>
      <trkpt lat="46.97148" lon="7.4529">
        <ele>501.708</ele>
        <time>2021-03-21T12:24:26Z</time>
      </trkpt>
      <trkpt lat="46.9715" lon="7.45195">
        <ele>501.97</ele>
        <time>2021-03-21T12:25:17Z</time>
      </trkpt>
      <trkpt lat="46.97067" lon="7.44899">
        <ele>502.112</ele>
        <time>2021-03-21T12:28:06Z</time>
      </trkpt>
      <trkpt lat="46.96988" lon="7.44784">
        <ele>502.139</ele>
        <time>2021-03-21T12:29:25Z</time>
      </trkpt>
      <trkpt lat="46.9693" lon="7.44729">
        <ele>502.133</ele>
        <time>2021-03-21T12:30:17Z</time>
      </trkpt>
      <trkpt lat="46.96805" lon="7.44624">
        <ele>507.277</ele>
        <time>2021-03-21T12:32:13Z</time>
      </trkpt>
      <trkpt lat="46.96683" lon="7.44555">
        <ele>502.838</ele>
        <time>2021-03-21T12:34:00Z</time>
      </trkpt>
      <trkpt lat="46.96565" lon="7.44462">
        <ele>504.074</ele>
        <time>2021-03-21T12:35:46Z</time>
      </trkpt>
      <trkpt lat="46.96574" lon="7.44446">
        <ele>506.435</ele>
        <time>2021-03-21T12:36:03Z</time>
      </trkpt>
      <trkpt lat="46.96637" lon="7.44448">
        <ele>512.622</ele>
        <time>2021-03-21T12:37:08Z</time>
      </trkpt>
      <trkpt lat="46.96678" lon="7.44411">
        <ele>529.262</ele>
        <time>2021-03-21T12:38:39Z</time>
      </trkpt>
      <trkpt lat="46.96727" lon="7.44399">
        <ele>532.908</ele>
        <time>2021-03-21T12:39:03Z</time>
      </trkpt>
      <trkpt lat="46.96764" lon="7.44411">
        <ele>534.308</ele>
        <time>2021-03-21T12:39:43Z</time>
      </trkpt>
      <trkpt lat="46.96785" lon="7.44396">
        <ele>535.268</ele>
        <time>2021-03-21T12:39:59Z</time>
      </trkpt>
      <trkpt lat="46.96809" lon="7.44401">
        <ele>534.78</ele>
        <time>2021-03-21T12:40:25Z</time>
      </trkpt>
      <trkpt lat="46.96827" lon="7.44432">
        <ele>541.427</ele>
        <time>2021-03-21T12:41:06Z</time>
      </trkpt>
      <trkpt lat="46.96825" lon="7.44386">
        <ele>544.131</ele>
        <time>2021-03-21T12:42:00Z</time>
      </trkpt>
      <trkpt lat="46.96808" lon="7.44362">
        <ele>549.555</ele>
        <time>2021-03-21T12:42:36Z</time>
      </trkpt>
      <trkpt lat="46.96774" lon="7.44361">
        <ele>555.146</ele>
        <time>2021-03-21T12:43:05Z</time>
      </trkpt>
      <trkpt lat="46.96772" lon="7.44322">
        <ele>558.742</ele>
        <time>2021-03-21T12:43:30Z</time>
      </trkpt>
      <trkpt lat="46.96747" lon="7.44311">
        <ele>560.653</ele>
        <time>2021-03-21T12:43:50Z</time>
      </trkpt>
      <trkpt lat="46.96739" lon="7.44287">
        <ele>562.729</ele>
        <time>2021-03-21T12:44:10Z</time>
      </trkpt>
      <trkpt lat="46.96701" lon="7.44281">
        <ele>567.2</ele>
        <time>2021-03-21T12:44:43Z</time>
      </trkpt>
      <trkpt lat="46.96589" lon="7.44203">
        <ele>576.72</ele>
        <time>2021-03-21T12:46:35Z</time>
      </trkpt>
      <trkpt lat="46.96577" lon="7.44214">
        <ele>576.708</ele>
        <time>2021-03-21T12:46:48Z</time>
      </trkpt>
      <trkpt lat="46.96544" lon="7.44197">
        <ele>576.668</ele>
        <time>2021-03-21T12:47:18Z</time>
      </trkpt>
      <trkpt lat="46.96521" lon="7.44211">
        <ele>576.93</ele>
        <time>2021-03-21T12:47:38Z</time>
      </trkpt>
      <trkpt lat="46.96395" lon="7.44159">
        <ele>579.267</ele>
        <time>2021-03-21T12:49:18Z</time>
      </trkpt>
      <trkpt lat="46.96239" lon="7.44004">
        <ele>573.181</ele>
        <time>2021-03-21T12:52:05Z</time>
      </trkpt>
      <trkpt lat="46.96165" lon="7.43974">
        <ele>573.785</ele>
        <time>2021-03-21T12:53:11Z</time>
      </trkpt>
      <trkpt lat="46.96112" lon="7.43923">
        <ele>573.866</ele>
        <time>2021-03-21T12:54:05Z</time>
      </trkpt>
      <trkpt lat="46.96072" lon="7.43915">
        <ele>572.612</ele>
        <time>2021-03-21T12:54:35Z</time>
      </trkpt>
      <trkpt lat="46.95997" lon="7.43938">
        <ele>567.033</ele>
        <time>2021-03-21T12:55:38Z</time>
      </trkpt>
      <trkpt lat="46.95945" lon="7.43932">
        <ele>565.296</ele>
        <time>2021-03-21T12:56:15Z</time>
      </trkpt>
      <trkpt lat="46.95737" lon="7.43818">
        <ele>566.431</ele>
        <time>2021-03-21T12:59:02Z</time>
      </trkpt>
      <trkpt lat="46.95664" lon="7.43798">
        <ele>566.424</ele>
        <time>2021-03-21T12:59:55Z</time>
      </trkpt>
      <trkpt lat="46.95615" lon="7.43819">
        <ele>565.708</ele>
        <time>2021-03-21T13:00:31Z</time>
      </trkpt>
      <trkpt lat="46.95535" lon="7.43896">
        <ele>559.345</ele>
        <time>2021-03-21T13:01:48Z</time>
      </trkpt>
      <trkpt lat="46.95501" lon="7.43912">
        <ele>557.377</ele>
        <time>2021-03-21T13:02:12Z</time>
      </trkpt>
      <trkpt lat="46.95365" lon="7.43924">
        <ele>549.814</ele>
        <time>2021-03-21T13:03:45Z</time>
      </trkpt>
      <trkpt lat="46.95331" lon="7.43967">
        <ele>548.748</ele>
        <time>2021-03-21T13:04:20Z</time>
      </trkpt>
      <trkpt lat="46.95325" lon="7.44004">
        <ele>548.362</ele>
        <time>2021-03-21T13:04:39Z</time>
      </trkpt>
      <trkpt lat="46.95229" lon="7.44087">
        <ele>546.213</ele>
        <time>2021-03-21T13:06:05Z</time>
      </trkpt>
      <trkpt lat="46.95194" lon="7.44087">
        <ele>545.229</ele>
        <time>2021-03-21T13:06:39Z</time>
      </trkpt>
      <trkpt lat="46.9516" lon="7.44106">
        <ele>545.12</ele>
        <time>2021-03-21T13:06:59Z</time>
      </trkpt>
      <trkpt lat="46.95122" lon="7.44085">
        <ele>546.454</ele>
        <time>2021-03-21T13:07:49Z</time>
      </trkpt>
      <trkpt lat="46.95093" lon="7.44088">
        <ele>547.856</ele>
        <time>2021-03-21T13:08:10Z</time>
      </trkpt>
      <trkpt lat="46.95065" lon="7.44159">
        <ele>548.811</ele>
        <time>2021-03-21T13:08:51Z</time>
      </trkpt>
      <trkpt lat="46.95051" lon="7.44163">
        <ele>549.108</ele>
        <time>2021-03-21T13:08:59Z</time>
      </trkpt>
      <trkpt lat="46.95042" lon="7.44239">
        <ele>549.821</ele>
        <time>2021-03-21T13:09:37Z</time>
      </trkpt>
      <trkpt lat="46.94972" lon="7.44428">
        <ele>550.143</ele>
        <time>2021-03-21T13:11:30Z</time>
      </trkpt>
      <trkpt lat="46.94928" lon="7.44411">
        <ele>551.79</ele>
        <time>2021-03-21T13:11:58Z</time>
      </trkpt>
      <trkpt lat="46.94909" lon="7.44428">
        <ele>552.484</ele>
        <time>2021-03-21T13:12:12Z</time>
      </trkpt>
      <trkpt lat="46.94875" lon="7.44403">
        <ele>553.018</ele>
        <time>2021-03-21T13:13:06Z</time>
      </trkpt>
      <trkpt lat="46.94886" lon="7.44412">
        <ele>553.129</ele>
        <time>2021-03-21T13:14:23Z</time>
      </trkpt>
      <trkpt lat="46.949" lon="7.44403">
        <ele>553.275</ele>
        <time>2021-03-21T13:15:06Z</time>
      </trkpt>
      <trkpt lat="46.94889" lon="7.44418">
        <ele>553.556</ele>
        <time>2021-03-21T13:15:48Z</time>
      </trkpt>
      <trkpt lat="46.94888" lon="7.44401">
        <ele>553.972</ele>
        <time>2021-03-21T13:17:02Z</time>
      </trkpt>
      <trkpt lat="46.94827" lon="7.44369">
        <ele>554.513</ele>
        <time>2021-03-21T13:19:11Z</time>
      </trkpt>
      <trkpt lat="46.94811" lon="7.44427">
        <ele>554.414</ele>
        <time>2021-03-21T13:19:59Z</time>
      </trkpt>
      <trkpt lat="46.94763" lon="7.44414">
        <ele>555.108</ele>
        <time>2021-03-21T13:20:41Z</time>
      </trkpt>
      <trkpt lat="46.94729" lon="7.44423">
        <ele>555.683</ele>
        <time>2021-03-21T13:21:09Z</time>
      </trkpt>
      <trkpt lat="46.94727" lon="7.44582">
        <ele>554.935</ele>
        <time>2021-03-21T13:22:42Z</time>
      </trkpt>
      <trkpt lat="46.94783" lon="7.44593">
        <ele>555.612</ele>
        <time>2021-03-21T13:23:32Z</time>
      </trkpt>
      <trkpt lat="46.94791" lon="7.44719">
        <ele>554.866</ele>
        <time>2021-03-21T13:24:46Z</time>
      </trkpt>
      <trkpt lat="46.94775" lon="7.44757">
        <ele>553.73</ele>
        <time>2021-03-21T13:25:25Z</time>
      </trkpt>
      <trkpt lat="46.94793" lon="7.44752">
        <ele>554.081</ele>
        <time>2021-03-21T13:25:50Z</time>
      </trkpt>
      <trkpt lat="46.948" lon="7.44818">
        <ele>553.257</ele>
        <time>2021-03-21T13:26:57Z</time>
      </trkpt>
      <trkpt lat="46.94798" lon="7.45101">
        <ele>549.098</ele>
        <time>2021-03-21T13:29:51Z</time>
      </trkpt>
      <trkpt lat="46.94823" lon="7.45243">
        <ele>547.919</ele>
        <time>2021-03-21T13:31:43Z</time>
      </trkpt>
      <trkpt lat="46.94812" lon="7.45313">
        <ele>546.909</ele>
        <time>2021-03-21T13:32:17Z</time>
      </trkpt>
      <trkpt lat="46.94879" lon="7.45543">
        <ele>539.819</ele>
        <time>2021-03-21T13:34:48Z</time>
      </trkpt>
      <trkpt lat="46.9487" lon="7.45559">
        <ele>538.308</ele>
        <time>2021-03-21T13:35:05Z</time>
      </trkpt>
      <trkpt lat="46.94882" lon="7.45648">
        <ele>532.077</ele>
        <time>2021-03-21T13:36:46Z</time>
      </trkpt>
      <trkpt lat="46.94938" lon="7.45723">
        <ele>521.429</ele>
        <time>2021-03-21T13:38:04Z</time>
      </trkpt>
      <trkpt lat="46.94933" lon="7.45798">
        <ele>517.696</ele>
        <time>2021-03-21T13:38:40Z</time>
      </trkpt>
      <trkpt lat="46.94954" lon="7.45893">
        <ele>518.55</ele>
        <time>2021-03-21T13:40:33Z</time>
      </trkpt>
      <trkpt lat="46.95031" lon="7.45814">
        <ele>517.424</ele>
        <time>2021-03-21T13:42:08Z</time>
      </trkpt>
      <trkpt lat="46.9506" lon="7.4571">
        <ele>514.095</ele>
        <time>2021-03-21T13:43:16Z</time>
      </trkpt>
      <trkpt lat="46.95045" lon="7.45634">
        <ele>513.671</ele>
        <time>2021-03-21T13:44:00Z</time>
      </trkpt>
      <trkpt lat="46.95046" lon="7.4548">
        <ele>513.162</ele>
        <time>2021-03-21T13:45:26Z</time>
      </trkpt>
      <trkpt lat="46.95029" lon="7.45444">
        <ele>512.763</ele>
        <time>2021-03-21T13:45:56Z</time>
      </trkpt>
      <trkpt lat="46.95004" lon="7.45202">
        <ele>511.944</ele>
        <time>2021-03-21T13:48:21Z</time>
      </trkpt>
      <trkpt lat="46.9503" lon="7.4486">
        <ele>512.118</ele>
        <time>2021-03-21T13:51:22Z</time>
      </trkpt>
      <trkpt lat="46.95073" lon="7.44779">
        <ele>512.708</ele>
        <time>2021-03-21T13:52:21Z</time>
      </trkpt>
      <trkpt lat="46.95121" lon="7.44625">
        <ele>512.872</ele>
        <time>2021-03-21T13:53:48Z</time>
      </trkpt>
      <trkpt lat="46.9521" lon="7.44461">
        <ele>513.694</ele>
        <time>2021-03-21T13:55:35Z</time>
      </trkpt>
      <trkpt lat="46.95252" lon="7.44422">
        <ele>513.921</ele>
        <time>2021-03-21T13:56:10Z</time>
      </trkpt>
      <trkpt lat="46.95347" lon="7.44282">
        <ele>514.165</ele>
        <time>2021-03-21T13:57:53Z</time>
      </trkpt>
      <trkpt lat="46.95464" lon="7.4417">
        <ele>514.169</ele>
        <time>2021-03-21T13:59:29Z</time>
      </trkpt>
      <trkpt lat="46.9552" lon="7.44136">
        <ele>514.13</ele>
        <time>2021-03-21T14:00:10Z</time>
      </trkpt>
      <trkpt lat="46.95578" lon="7.44115">
        <ele>514.216</ele>
        <time>2021-03-21T14:00:56Z</time>
      </trkpt>
      <trkpt lat="46.95635" lon="7.44121">
        <ele>514.297</ele>
        <time>2021-03-21T14:01:36Z</time>
      </trkpt>
      <trkpt lat="46.95748" lon="7.44172">
        <ele>513.988</ele>
        <time>2021-03-21T14:03:02Z</time>
      </trkpt>
      <trkpt lat="46.95758" lon="7.44199">
        <ele>513.224</ele>
        <time>2021-03-21T14:03:46Z</time>
      </trkpt>
      <trkpt lat="46.95856" lon="7.44202">
        <ele>563.826</ele>
        <time>2021-03-21T14:18:34Z</time>
      </trkpt>
      <trkpt lat="46.95945" lon="7.44247">
        <ele>513.308</ele>
        <time>2021-03-21T14:19:44Z</time>
      </trkpt>
      <trkpt lat="46.96287" lon="7.44353">
        <ele>512.644</ele>
        <time>2021-03-21T14:24:02Z</time>
      </trkpt>
      <trkpt lat="46.96392" lon="7.44411">
        <ele>512.626</ele>
        <time>2021-03-21T14:25:14Z</time>
      </trkpt>
      <trkpt lat="46.96568" lon="7.44565">
        <ele>512.093</ele>
        <time>2021-03-21T14:28:13Z</time>
      </trkpt>
      <trkpt lat="46.96715" lon="7.44657">
        <ele>512.837</ele>
        <time>2021-03-21T14:30:07Z</time>
      </trkpt>
      <trkpt lat="46.96795" lon="7.44733">
        <ele>514.051</ele>
        <time>2021-03-21T14:31:19Z</time>
      </trkpt>
      <trkpt lat="46.96944" lon="7.44839">
        <ele>514.382</ele>
        <time>2021-03-21T14:33:26Z</time>
      </trkpt>
      <trkpt lat="46.97023" lon="7.44942">
        <ele>513.588</ele>
        <time>2021-03-21T14:34:45Z</time>
      </trkpt>
      <trkpt lat="46.9705" lon="7.45008">
        <ele>512.629</ele>
        <time>2021-03-21T14:35:20Z</time>
      </trkpt>
      <trkpt lat="46.97077" lon="7.45266">
        <ele>515.162</ele>
        <time>2021-03-21T14:37:34Z</time>
      </trkpt>
      <trkpt lat="46.9707" lon="7.45299">
        <ele>518.583</ele>
        <time>2021-03-21T14:37:54Z</time>
      </trkpt>
      <trkpt lat="46.97052" lon="7.45313">
        <ele>520.811</ele>
        <time>2021-03-21T14:38:11Z</time>
      </trkpt>
      <trkpt lat="46.97043" lon="7.45446">
        <ele>514.408</ele>
        <time>2021-03-21T14:39:29Z</time>
      </trkpt>
      <trkpt lat="46.9699" lon="7.45587">
        <ele>513.292</ele>
        <time>2021-03-21T14:40:53Z</time>
      </trkpt>
      <trkpt lat="46.96995" lon="7.45631">
        <ele>512.034</ele>
        <time>2021-03-21T14:41:15Z</time>
      </trkpt>
      <trkpt lat="46.96956" lon="7.4593">
        <ele>515.491</ele>
        <time>2021-03-21T14:44:04Z</time>
      </trkpt>
      <trkpt lat="46.96982" lon="7.46074">
        <ele>514.125</ele>
        <time>2021-03-21T14:45:29Z</time>
      </trkpt>
      <trkpt lat="46.97046" lon="7.4622">
        <ele>511.919</ele>
        <time>2021-03-21T14:47:01Z</time>
      </trkpt>
      <trkpt lat="46.97139" lon="7.46374">
        <ele>510.51</ele>
        <time>2021-03-21T14:48:51Z</time>
      </trkpt>
      <trkpt lat="46.97264" lon="7.46479">
        <ele>509.146</ele>
        <time>2021-03-21T14:50:39Z</time>
      </trkpt>
      <trkpt lat="46.97318" lon="7.4658">
        <ele>509.047</ele>
        <time>2021-03-21T14:51:50Z</time>
      </trkpt>
      <trkpt lat="46.97387" lon="7.46669">
        <ele>509.468</ele>
        <time>2021-03-21T14:52:55Z</time>
      </trkpt>
      <trkpt lat="46.97457" lon="7.46724">
        <ele>509.042</ele>
        <time>2021-03-21T14:54:00Z</time>
      </trkpt>
      <trkpt lat="46.97523" lon="7.46743">
        <ele>509.226</ele>
        <time>2021-03-21T14:54:52Z</time>
      </trkpt>
      <trkpt lat="46.97553" lon="7.4674">
        <ele>509.308</ele>
        <time>2021-03-21T14:55:15Z</time>
      </trkpt>
      <trkpt lat="46.9763" lon="7.46633">
        <ele>508.812</ele>
        <time>2021-03-21T14:56:30Z</time>
      </trkpt>
      <trkpt lat="46.97708" lon="7.45925">
        <ele>508.374</ele>
        <time>2021-03-21T15:02:49Z</time>
      </trkpt>
      <trkpt lat="46.97705" lon="7.45793">
        <ele>508.971</ele>
        <time>2021-03-21T15:03:57Z</time>
      </trkpt>
      <trkpt lat="46.97744" lon="7.45609">
        <ele>509.955</ele>
        <time>2021-03-21T15:05:36Z</time>
      </trkpt>
      <trkpt lat="46.97818" lon="7.45496">
        <ele>509.549</ele>
        <time>2021-03-21T15:06:56Z</time>
      </trkpt>
      <trkpt lat="46.97904" lon="7.45454">
        <ele>509.11</ele>
        <time>2021-03-21T15:08:07Z</time>
      </trkpt>
      <trkpt lat="46.98286" lon="7.45348">
        <ele>509.586</ele>
        <time>2021-03-21T15:12:59Z</time>
      </trkpt>
      <trkpt lat="46.98305" lon="7.45352">
        <ele>509.017</ele>
        <time>2021-03-21T15:13:15Z</time>
      </trkpt>
      <trkpt lat="46.98382" lon="7.45319">
        <ele>508.952</ele>
        <time>2021-03-21T15:14:20Z</time>
      </trkpt>
      <trkpt lat="46.9866" lon="7.45302">
        <ele>509.053</ele>
        <time>2021-03-21T15:17:54Z</time>
      </trkpt>
      <trkpt lat="46.98743" lon="7.45314">
        <ele>508.808</ele>
        <time>2021-03-21T15:18:55Z</time>
      </trkpt>
      <trkpt lat="46.98856" lon="7.4531">
        <ele>508.108</ele>
        <time>2021-03-21T15:20:24Z</time>
      </trkpt>
      <trkpt lat="46.98869" lon="7.45299">
        <ele>508.151</ele>
        <time>2021-03-21T15:20:37Z</time>
      </trkpt>
      <trkpt lat="46.98868" lon="7.45312">
        <ele>507.873</ele>
        <time>2021-03-21T15:25:25Z</time>
      </trkpt>
      <trkpt lat="46.98888" lon="7.45285">
        <ele>508.09</ele>
        <time>2021-03-21T15:26:50Z</time>
      </trkpt>
      <trkpt lat="46.99006" lon="7.4525">
        <ele>508.814</ele>
        <time>2021-03-21T15:28:53Z</time>
      </trkpt>
      <trkpt lat="46.99048" lon="7.45148">
        <ele>509.868</ele>
        <time>2021-03-21T15:30:04Z</time>
      </trkpt>
      <trkpt lat="46.99028" lon="7.45011">
        <ele>509.479</ele>
        <time>2021-03-21T15:31:37Z</time>
      </trkpt>
      <trkpt lat="46.99035" lon="7.45019">
        <ele>508.875</ele>
        <time>2021-03-21T15:32:48Z</time>
      </trkpt>
    </trkseg>
  </trk>
</gpx>